South Oroville, California
Current Conditions -  °F | °C
As of 2:12 AM on Saturday 22 Nov 2014 (Local Time) from KOVE Reporting Station
Moderate Rain Moderate Rain  
Wind Chill: 54°   Ceiling: 2900
Heat Index: 54°   Visibility: 2.5mi
Dew Point: 51°   Wind: 15mph
Humidity: 90%   Direction: 130°SE
Pressure: 30.07"   Gusts: NA
Location:  39.5324°N, 121.648°W
Report Text: KOVE 221012Z AUTO 13013KT 2 1/2SM RA BR FEW024 BKN029 OVC039 12/11 A3007 RMK AO2 P0005 T01220106
Loading
Personal Weather Stations






























Interactive Weather Map New forecast layout! Learn more

10-Day Weather Forecast

Advertisements
Track Severe Weather on mobile